sensor_id;sensor_type;location;lat;lon;timestamp;P1;durP1;ratioP1;P2;durP2;ratioP2
1799;SDS011;919;48.274;12.292;2023-07-02T00:01:25;3.83;;;3.53;;
1799;SDS011;919;48.274;12.292;2023-07-02T00:03:52;4.80;;;3.43;;
1799;SDS011;919;48.274;12.292;2023-07-02T00:06:18;4.30;;;3.63;;
1799;SDS011;919;48.274;12.292;2023-07-02T00:08:45;3.90;;;3.60;;
1799;SDS011;919;48.274;12.292;2023-07-02T00:11:13;4.23;;;3.90;;
1799;SDS011;919;48.274;12.292;2023-07-02T00:13:42;8.23;;;3.33;;
1799;SDS011;919;48.274;12.292;2023-07-02T00:16:09;6.13;;;3.73;;
1799;SDS011;919;48.274;12.292;2023-07-02T00:18:36;3.67;;;3.37;;
1799;SDS011;919;48.274;12.292;2023-07-02T00:21:03;4.33;;;4.03;;
1799;SDS011;919;48.274;12.292;2023-07-02T00:23:29;4.13;;;3.73;;
1799;SDS011;919;48.274;12.292;2023-07-02T00:25:56;4.40;;;4.10;;
1799;SDS011;919;48.274;12.292;2023-07-02T00:28:23;3.40;;;3.10;;
1799;SDS011;919;48.274;12.292;2023-07-02T00:30:51;6.67;;;4.50;;
1799;SDS011;919;48.274;12.292;2023-07-02T00:33:17;3.63;;;3.40;;
1799;SDS011;919;48.274;12.292;2023-07-02T00:35:44;4.57;;;3.70;;
1799;SDS011;919;48.274;12.292;2023-07-02T00:38:11;3.63;;;3.30;;
1799;SDS011;919;48.274;12.292;2023-07-02T00:40:37;3.70;;;3.40;;
1799;SDS011;919;48.274;12.292;2023-07-02T00:43:04;7.50;;;3.73;;
1799;SDS011;919;48.274;12.292;2023-07-02T00:45:30;4.30;;;3.90;;
1799;SDS011;919;48.274;12.292;2023-07-02T00:47:58;3.90;;;3.50;;
1799;SDS011;919;48.274;12.292;2023-07-02T00:50:25;3.70;;;3.40;;
1799;SDS011;919;48.274;12.292;2023-07-02T00:52:53;5.47;;;3.73;;
1799;SDS011;919;48.274;12.292;2023-07-02T00:55:20;3.83;;;3.53;;
1799;SDS011;919;48.274;12.292;2023-07-02T00:57:47;4.43;;;3.90;;
1799;SDS011;919;48.274;12.292;2023-07-02T01:00:14;3.60;;;3.30;;
1799;SDS011;919;48.274;12.292;2023-07-02T01:02:41;4.50;;;3.80;;
1799;SDS011;919;48.274;12.292;2023-07-02T01:05:10;3.97;;;3.67;;
1799;SDS011;919;48.274;12.292;2023-07-02T01:07:40;3.80;;;3.50;;
1799;SDS011;919;48.274;12.292;2023-07-02T01:10:07;3.90;;;3.60;;
1799;SDS011;919;48.274;12.292;2023-07-02T01:12:34;3.27;;;2.90;;
1799;SDS011;919;48.274;12.292;2023-07-02T01:15:02;4.33;;;3.93;;
1799;SDS011;919;48.274;12.292;2023-07-02T01:17:31;4.20;;;3.80;;
1799;SDS011;919;48.274;12.292;2023-07-02T01:20:06;3.77;;;3.30;;
1799;SDS011;919;48.274;12.292;2023-07-02T01:22:34;3.80;;;3.50;;
1799;SDS011;919;48.274;12.292;2023-07-02T01:25:02;3.83;;;3.30;;
1799;SDS011;919;48.274;12.292;2023-07-02T01:27:29;4.53;;;3.40;;
1799;SDS011;919;48.274;12.292;2023-07-02T01:29:56;7.43;;;3.43;;
1799;SDS011;919;48.274;12.292;2023-07-02T01:32:23;4.80;;;4.30;;
1799;SDS011;919;48.274;12.292;2023-07-02T01:34:50;4.70;;;3.13;;
1799;SDS011;919;48.274;12.292;2023-07-02T01:37:19;3.83;;;3.53;;
1799;SDS011;919;48.274;12.292;2023-07-02T01:39:46;3.73;;;3.40;;
1799;SDS011;919;48.274;12.292;2023-07-02T01:42:13;5.73;;;3.20;;
1799;SDS011;919;48.274;12.292;2023-07-02T01:44:42;3.50;;;3.20;;
1799;SDS011;919;48.274;12.292;2023-07-02T01:47:09;4.03;;;3.57;;
1799;SDS011;919;48.274;12.292;2023-07-02T01:49:36;4.60;;;3.73;;
1799;SDS011;919;48.274;12.292;2023-07-02T01:52:03;3.10;;;2.90;;
1799;SDS011;919;48.274;12.292;2023-07-02T01:54:33;4.37;;;3.00;;
1799;SDS011;919;48.274;12.292;2023-07-02T01:57:02;3.70;;;3.23;;
1799;SDS011;919;48.274;12.292;2023-07-02T01:59:29;2.97;;;2.77;;
1799;SDS011;919;48.274;12.292;2023-07-02T02:01:55;3.20;;;2.90;;
1799;SDS011;919;48.274;12.292;2023-07-02T02:04:22;5.00;;;3.23;;
1799;SDS011;919;48.274;12.292;2023-07-02T02:06:49;3.40;;;3.03;;
1799;SDS011;919;48.274;12.292;2023-07-02T02:09:17;11.33;;;3.70;;
1799;SDS011;919;48.274;12.292;2023-07-02T02:11:45;3.70;;;3.40;;
1799;SDS011;919;48.274;12.292;2023-07-02T02:14:13;5.27;;;3.13;;
1799;SDS011;919;48.274;12.292;2023-07-02T02:16:40;3.67;;;3.33;;
1799;SDS011;919;48.274;12.292;2023-07-02T02:19:10;3.50;;;2.97;;
1799;SDS011;919;48.274;12.292;2023-07-02T02:21:37;3.70;;;3.30;;
1799;SDS011;919;48.274;12.292;2023-07-02T02:24:05;4.83;;;3.37;;
1799;SDS011;919;48.274;12.292;2023-07-02T02:26:32;3.90;;;2.87;;
1799;SDS011;919;48.274;12.292;2023-07-02T02:29:00;7.70;;;4.33;;
1799;SDS011;919;48.274;12.292;2023-07-02T02:31:27;3.87;;;3.50;;
1799;SDS011;919;48.274;12.292;2023-07-02T02:33:54;3.47;;;3.17;;
1799;SDS011;919;48.274;12.292;2023-07-02T02:36:21;3.03;;;2.83;;
1799;SDS011;919;48.274;12.292;2023-07-02T02:38:48;3.87;;;3.57;;
1799;SDS011;919;48.274;12.292;2023-07-02T02:41:14;3.00;;;2.60;;
1799;SDS011;919;48.274;12.292;2023-07-02T02:43:41;3.43;;;3.17;;
1799;SDS011;919;48.274;12.292;2023-07-02T02:46:09;3.83;;;3.50;;
1799;SDS011;919;48.274;12.292;2023-07-02T02:48:37;3.70;;;3.30;;
1799;SDS011;919;48.274;12.292;2023-07-02T02:51:04;3.13;;;2.70;;
1799;SDS011;919;48.274;12.292;2023-07-02T02:53:30;3.30;;;3.00;;
1799;SDS011;919;48.274;12.292;2023-07-02T02:55:57;2.73;;;2.53;;
1799;SDS011;919;48.274;12.292;2023-07-02T02:58:24;3.37;;;3.13;;
1799;SDS011;919;48.274;12.292;2023-07-02T03:00:54;4.07;;;2.77;;
1799;SDS011;919;48.274;12.292;2023-07-02T03:03:22;3.00;;;2.70;;
1799;SDS011;919;48.274;12.292;2023-07-02T03:05:50;2.70;;;2.50;;
1799;SDS011;919;48.274;12.292;2023-07-02T03:08:17;2.50;;;2.30;;
1799;SDS011;919;48.274;12.292;2023-07-02T03:10:44;2.57;;;2.37;;
1799;SDS011;919;48.274;12.292;2023-07-02T03:13:10;3.23;;;2.93;;
1799;SDS011;919;48.274;12.292;2023-07-02T03:15:37;2.80;;;2.50;;
1799;SDS011;919;48.274;12.292;2023-07-02T03:18:04;2.77;;;2.30;;
1799;SDS011;919;48.274;12.292;2023-07-02T03:20:33;2.80;;;2.60;;
1799;SDS011;919;48.274;12.292;2023-07-02T03:22:59;2.57;;;2.37;;
1799;SDS011;919;48.274;12.292;2023-07-02T03:25:27;2.17;;;2.07;;
1799;SDS011;919;48.274;12.292;2023-07-02T03:27:53;3.80;;;2.40;;
1799;SDS011;919;48.274;12.292;2023-07-02T03:30:20;2.30;;;2.10;;
1799;SDS011;919;48.274;12.292;2023-07-02T03:32:47;2.07;;;1.97;;
1799;SDS011;919;48.274;12.292;2023-07-02T03:35:14;2.20;;;1.90;;
1799;SDS011;919;48.274;12.292;2023-07-02T03:37:42;2.40;;;2.20;;
1799;SDS011;919;48.274;12.292;2023-07-02T03:40:09;3.17;;;2.23;;
1799;SDS011;919;48.274;12.292;2023-07-02T03:42:35;3.03;;;2.40;;
1799;SDS011;919;48.274;12.292;2023-07-02T03:45:02;6.13;;;2.40;;
1799;SDS011;919;48.274;12.292;2023-07-02T03:47:29;7.43;;;2.60;;
1799;SDS011;919;48.274;12.292;2023-07-02T03:49:56;3.10;;;2.77;;
1799;SDS011;919;48.274;12.292;2023-07-02T03:52:23;3.07;;;2.87;;
1799;SDS011;919;48.274;12.292;2023-07-02T03:54:51;5.50;;;2.30;;
1799;SDS011;919;48.274;12.292;2023-07-02T03:57:17;3.43;;;3.13;;
1799;SDS011;919;48.274;12.292;2023-07-02T03:59:44;2.47;;;2.00;;
1799;SDS011;919;48.274;12.292;2023-07-02T04:02:10;2.70;;;2.50;;
1799;SDS011;919;48.274;12.292;2023-07-02T04:04:38;2.43;;;2.23;;
1799;SDS011;919;48.274;12.292;2023-07-02T04:07:05;3.77;;;2.47;;
1799;SDS011;919;48.274;12.292;2023-07-02T04:09:32;3.33;;;2.33;;
1799;SDS011;919;48.274;12.292;2023-07-02T04:12:00;2.70;;;2.50;;
1799;SDS011;919;48.274;12.292;2023-07-02T04:14:27;3.20;;;2.50;;
1799;SDS011;919;48.274;12.292;2023-07-02T04:16:54;2.60;;;2.40;;
1799;SDS011;919;48.274;12.292;2023-07-02T04:19:20;2.40;;;2.20;;
1799;SDS011;919;48.274;12.292;2023-07-02T04:21:47;2.83;;;2.07;;
1799;SDS011;919;48.274;12.292;2023-07-02T04:24:14;4.90;;;3.40;;
1799;SDS011;919;48.274;12.292;2023-07-02T04:26:41;2.70;;;2.50;;
1799;SDS011;919;48.274;12.292;2023-07-02T04:29:11;2.80;;;2.07;;
1799;SDS011;919;48.274;12.292;2023-07-02T04:31:38;2.30;;;2.10;;
1799;SDS011;919;48.274;12.292;2023-07-02T04:34:05;3.60;;;2.43;;
1799;SDS011;919;48.274;12.292;2023-07-02T04:36:31;4.80;;;2.20;;
1799;SDS011;919;48.274;12.292;2023-07-02T04:38:58;4.40;;;2.20;;
1799;SDS011;919;48.274;12.292;2023-07-02T04:41:25;3.30;;;3.00;;
1799;SDS011;919;48.274;12.292;2023-07-02T04:43:54;2.40;;;2.10;;
1799;SDS011;919;48.274;12.292;2023-07-02T04:46:22;4.10;;;1.87;;
1799;SDS011;919;48.274;12.292;2023-07-02T04:48:49;2.50;;;2.30;;
1799;SDS011;919;48.274;12.292;2023-07-02T04:51:16;2.37;;;2.20;;
1799;SDS011;919;48.274;12.292;2023-07-02T04:53:43;3.20;;;2.20;;
1799;SDS011;919;48.274;12.292;2023-07-02T04:56:09;2.47;;;2.27;;
1799;SDS011;919;48.274;12.292;2023-07-02T04:58:36;2.43;;;1.73;;
1799;SDS011;919;48.274;12.292;2023-07-02T05:01:03;2.00;;;1.90;;
1799;SDS011;919;48.274;12.292;2023-07-02T05:03:31;1.70;;;1.60;;
1799;SDS011;919;48.274;12.292;2023-07-02T05:05:57;2.97;;;2.37;;
1799;SDS011;919;48.274;12.292;2023-07-02T05:08:24;2.30;;;2.10;;
1799;SDS011;919;48.274;12.292;2023-07-02T05:10:51;3.10;;;2.80;;
1799;SDS011;919;48.274;12.292;2023-07-02T05:13:17;2.70;;;2.50;;
1799;SDS011;919;48.274;12.292;2023-07-02T05:15:44;4.73;;;2.10;;
1799;SDS011;919;48.274;12.292;2023-07-02T05:18:11;4.80;;;2.90;;
1799;SDS011;919;48.274;12.292;2023-07-02T05:20:40;2.77;;;2.57;;
1799;SDS011;919;48.274;12.292;2023-07-02T05:23:07;2.70;;;2.50;;
1799;SDS011;919;48.274;12.292;2023-07-02T05:25:34;2.60;;;2.40;;
1799;SDS011;919;48.274;12.292;2023-07-02T05:28:00;2.50;;;2.30;;
1799;SDS011;919;48.274;12.292;2023-07-02T05:30:27;2.77;;;2.20;;
1799;SDS011;919;48.274;12.292;2023-07-02T05:32:54;2.30;;;2.10;;
1799;SDS011;919;48.274;12.292;2023-07-02T05:35:20;2.33;;;1.87;;
1799;SDS011;919;48.274;12.292;2023-07-02T05:37:48;1.73;;;1.63;;
1799;SDS011;919;48.274;12.292;2023-07-02T05:40:15;3.13;;;2.60;;
1799;SDS011;919;48.274;12.292;2023-07-02T05:42:42;2.27;;;2.07;;
1799;SDS011;919;48.274;12.292;2023-07-02T05:45:09;2.03;;;1.83;;
1799;SDS011;919;48.274;12.292;2023-07-02T05:47:36;1.87;;;1.70;;
1799;SDS011;919;48.274;12.292;2023-07-02T05:50:03;2.10;;;1.90;;
1799;SDS011;919;48.274;12.292;2023-07-02T05:52:30;2.80;;;2.07;;
1799;SDS011;919;48.274;12.292;2023-07-02T05:54:58;2.90;;;2.60;;
1799;SDS011;919;48.274;12.292;2023-07-02T05:57:25;2.27;;;2.07;;
1799;SDS011;919;48.274;12.292;2023-07-02T05:59:52;3.43;;;2.20;;
1799;SDS011;919;48.274;12.292;2023-07-02T06:02:18;4.57;;;1.97;;
1799;SDS011;919;48.274;12.292;2023-07-02T06:04:45;1.90;;;1.80;;
1799;SDS011;919;48.274;12.292;2023-07-02T06:07:12;4.53;;;2.50;;
1799;SDS011;919;48.274;12.292;2023-07-02T06:09:38;4.63;;;2.70;;
1799;SDS011;919;48.274;12.292;2023-07-02T06:12:07;2.80;;;2.60;;
1799;SDS011;919;48.274;12.292;2023-07-02T06:14:34;2.63;;;2.30;;
1799;SDS011;919;48.274;12.292;2023-07-02T06:17:01;3.60;;;2.40;;
1799;SDS011;919;48.274;12.292;2023-07-02T06:19:30;2.53;;;2.33;;
1799;SDS011;919;48.274;12.292;2023-07-02T06:21:57;3.10;;;2.10;;
1799;SDS011;919;48.274;12.292;2023-07-02T06:24:24;3.43;;;2.17;;
1799;SDS011;919;48.274;12.292;2023-07-02T06:26:50;2.63;;;2.43;;
1799;SDS011;919;48.274;12.292;2023-07-02T06:29:18;2.40;;;2.20;;
1799;SDS011;919;48.274;12.292;2023-07-02T06:31:45;3.27;;;2.97;;
1799;SDS011;919;48.274;12.292;2023-07-02T06:34:12;2.60;;;2.40;;
1799;SDS011;919;48.274;12.292;2023-07-02T06:36:39;3.20;;;2.30;;
1799;SDS011;919;48.274;12.292;2023-07-02T06:39:06;3.30;;;2.50;;
1799;SDS011;919;48.274;12.292;2023-07-02T06:41:34;3.40;;;2.10;;
1799;SDS011;919;48.274;12.292;2023-07-02T06:44:00;3.70;;;2.33;;
1799;SDS011;919;48.274;12.292;2023-07-02T06:46:28;2.00;;;1.80;;
1799;SDS011;919;48.274;12.292;2023-07-02T06:48:55;2.37;;;2.27;;
1799;SDS011;919;48.274;12.292;2023-07-02T06:51:22;1.90;;;1.80;;
1799;SDS011;919;48.274;12.292;2023-07-02T06:53:51;3.10;;;2.53;;
1799;SDS011;919;48.274;12.292;2023-07-02T06:56:18;3.47;;;1.77;;
1799;SDS011;919;48.274;12.292;2023-07-02T06:58:45;2.90;;;2.70;;
1799;SDS011;919;48.274;12.292;2023-07-02T07:01:11;6.53;;;2.67;;
1799;SDS011;919;48.274;12.292;2023-07-02T07:03:40;3.37;;;2.23;;
1799;SDS011;919;48.274;12.292;2023-07-02T07:06:07;2.63;;;2.43;;
1799;SDS011;919;48.274;12.292;2023-07-02T07:08:36;3.47;;;2.83;;
1799;SDS011;919;48.274;12.292;2023-07-02T07:11:03;2.07;;;1.87;;
1799;SDS011;919;48.274;12.292;2023-07-02T07:13:30;2.20;;;1.90;;
1799;SDS011;919;48.274;12.292;2023-07-02T07:15:57;3.20;;;2.43;;
1799;SDS011;919;48.274;12.292;2023-07-02T07:18:24;3.07;;;2.20;;
1799;SDS011;919;48.274;12.292;2023-07-02T07:20:52;2.40;;;2.00;;
1799;SDS011;919;48.274;12.292;2023-07-02T07:23:18;2.40;;;2.20;;
1799;SDS011;919;48.274;12.292;2023-07-02T07:25:45;2.53;;;2.30;;
1799;SDS011;919;48.274;12.292;2023-07-02T07:28:12;2.90;;;2.20;;
1799;SDS011;919;48.274;12.292;2023-07-02T07:30:40;2.43;;;2.23;;
1799;SDS011;919;48.274;12.292;2023-07-02T07:33:07;3.37;;;2.20;;
1799;SDS011;919;48.274;12.292;2023-07-02T07:35:34;2.87;;;2.10;;
1799;SDS011;919;48.274;12.292;2023-07-02T07:38:02;2.60;;;2.37;;
1799;SDS011;919;48.274;12.292;2023-07-02T07:40:29;4.53;;;3.33;;
1799;SDS011;919;48.274;12.292;2023-07-02T07:42:56;3.10;;;2.43;;
1799;SDS011;919;48.274;12.292;2023-07-02T07:45:22;3.87;;;2.33;;
1799;SDS011;919;48.274;12.292;2023-07-02T07:47:49;4.87;;;2.70;;
1799;SDS011;919;48.274;12.292;2023-07-02T07:50:16;2.80;;;2.60;;
1799;SDS011;919;48.274;12.292;2023-07-02T07:52:43;3.20;;;2.47;;
1799;SDS011;919;48.274;12.292;2023-07-02T07:55:11;2.57;;;2.37;;
1799;SDS011;919;48.274;12.292;2023-07-02T07:57:38;2.50;;;2.30;;
1799;SDS011;919;48.274;12.292;2023-07-02T08:00:05;3.03;;;2.73;;
1799;SDS011;919;48.274;12.292;2023-07-02T08:02:33;4.23;;;3.50;;
1799;SDS011;919;48.274;12.292;2023-07-02T08:05:00;3.20;;;2.90;;
1799;SDS011;919;48.274;12.292;2023-07-02T08:07:27;3.33;;;2.90;;
1799;SDS011;919;48.274;12.292;2023-07-02T08:09:54;5.40;;;3.93;;
1799;SDS011;919;48.274;12.292;2023-07-02T08:12:22;3.60;;;3.30;;
1799;SDS011;919;48.274;12.292;2023-07-02T08:14:49;3.93;;;3.13;;
1799;SDS011;919;48.274;12.292;2023-07-02T08:17:15;4.47;;;3.27;;
1799;SDS011;919;48.274;12.292;2023-07-02T08:19:42;5.30;;;3.10;;
1799;SDS011;919;48.274;12.292;2023-07-02T08:22:09;4.13;;;2.87;;
1799;SDS011;919;48.274;12.292;2023-07-02T08:24:35;4.00;;;3.70;;
1799;SDS011;919;48.274;12.292;2023-07-02T08:27:02;3.83;;;3.47;;
1799;SDS011;919;48.274;12.292;2023-07-02T08:29:31;3.80;;;3.50;;
1799;SDS011;919;48.274;12.292;2023-07-02T08:31:57;3.80;;;3.50;;
1799;SDS011;919;48.274;12.292;2023-07-02T08:34:24;3.50;;;3.20;;
1799;SDS011;919;48.274;12.292;2023-07-02T08:36:51;5.77;;;4.20;;
1799;SDS011;919;48.274;12.292;2023-07-02T08:39:18;3.43;;;3.10;;
1799;SDS011;919;48.274;12.292;2023-07-02T08:41:45;3.57;;;3.23;;
1799;SDS011;919;48.274;12.292;2023-07-02T08:44:12;4.73;;;3.37;;
1799;SDS011;919;48.274;12.292;2023-07-02T08:46:41;3.60;;;3.30;;
1799;SDS011;919;48.274;12.292;2023-07-02T08:49:08;4.47;;;3.27;;
1799;SDS011;919;48.274;12.292;2023-07-02T08:51:36;4.20;;;3.63;;
1799;SDS011;919;48.274;12.292;2023-07-02T08:54:06;3.83;;;3.43;;
1799;SDS011;919;48.274;12.292;2023-07-02T08:56:57;3.80;;;3.50;;
1799;SDS011;919;48.274;12.292;2023-07-02T08:59:26;3.50;;;3.20;;
1799;SDS011;919;48.274;12.292;2023-07-02T09:01:54;3.20;;;3.00;;
1799;SDS011;919;48.274;12.292;2023-07-02T09:04:21;3.60;;;3.30;;
1799;SDS011;919;48.274;12.292;2023-07-02T09:06:50;3.70;;;3.40;;
1799;SDS011;919;48.274;12.292;2023-07-02T09:09:29;4.30;;;3.60;;
1799;SDS011;919;48.274;12.292;2023-07-02T09:11:56;3.43;;;3.07;;
1799;SDS011;919;48.274;12.292;2023-07-02T09:14:24;3.77;;;2.57;;
1799;SDS011;919;48.274;12.292;2023-07-02T09:17:03;3.63;;;3.17;;
1799;SDS011;919;48.274;12.292;2023-07-02T09:19:32;5.10;;;3.00;;
1799;SDS011;919;48.274;12.292;2023-07-02T09:21:59;2.90;;;2.70;;
1799;SDS011;919;48.274;12.292;2023-07-02T09:24:26;3.07;;;2.57;;
1799;SDS011;919;48.274;12.292;2023-07-02T09:26:55;3.47;;;3.17;;
1799;SDS011;919;48.274;12.292;2023-07-02T09:29:25;3.90;;;3.60;;
1799;SDS011;919;48.274;12.292;2023-07-02T09:31:53;3.30;;;2.97;;
1799;SDS011;919;48.274;12.292;2023-07-02T09:34:27;5.43;;;3.23;;
1799;SDS011;919;48.274;12.292;2023-07-02T09:36:56;4.87;;;3.60;;
1799;SDS011;919;48.274;12.292;2023-07-02T09:39:27;5.13;;;3.03;;
1799;SDS011;919;48.274;12.292;2023-07-02T09:41:55;4.30;;;3.90;;
1799;SDS011;919;48.274;12.292;2023-07-02T09:44:25;4.20;;;3.73;;
1799;SDS011;919;48.274;12.292;2023-07-02T09:46:57;4.33;;;3.50;;
1799;SDS011;919;48.274;12.292;2023-07-02T09:49:32;6.27;;;4.60;;
1799;SDS011;919;48.274;12.292;2023-07-02T09:52:00;6.13;;;3.87;;
1799;SDS011;919;48.274;12.292;2023-07-02T09:54:29;4.07;;;3.23;;
1799;SDS011;919;48.274;12.292;2023-07-02T09:56:56;7.33;;;3.90;;
1799;SDS011;919;48.274;12.292;2023-07-02T09:59:24;4.53;;;4.13;;
1799;SDS011;919;48.274;12.292;2023-07-02T10:01:51;3.83;;;3.50;;
1799;SDS011;919;48.274;12.292;2023-07-02T10:04:19;4.20;;;3.80;;
1799;SDS011;919;48.274;12.292;2023-07-02T10:06:50;4.60;;;4.10;;
1799;SDS011;919;48.274;12.292;2023-07-02T10:09:19;4.07;;;3.57;;
1799;SDS011;919;48.274;12.292;2023-07-02T10:11:47;5.10;;;4.20;;
1799;SDS011;919;48.274;12.292;2023-07-02T10:14:14;4.80;;;3.27;;
1799;SDS011;919;48.274;12.292;2023-07-02T10:16:50;3.30;;;3.00;;
1799;SDS011;919;48.274;12.292;2023-07-02T10:19:17;3.43;;;2.97;;
1799;SDS011;919;48.274;12.292;2023-07-02T10:21:45;3.33;;;2.77;;
1799;SDS011;919;48.274;12.292;2023-07-02T10:24:16;3.20;;;2.90;;
1799;SDS011;919;48.274;12.292;2023-07-02T10:26:54;4.50;;;3.27;;
1799;SDS011;919;48.274;12.292;2023-07-02T10:29:22;4.80;;;3.30;;
1799;SDS011;919;48.274;12.292;2023-07-02T10:31:49;3.13;;;2.90;;
1799;SDS011;919;48.274;12.292;2023-07-02T10:34:16;4.73;;;2.37;;
1799;SDS011;919;48.274;12.292;2023-07-02T10:36:55;2.83;;;2.63;;
1799;SDS011;919;48.274;12.292;2023-07-02T10:39:24;3.13;;;2.83;;
1799;SDS011;919;48.274;12.292;2023-07-02T10:41:51;3.60;;;3.30;;
1799;SDS011;919;48.274;12.292;2023-07-02T10:44:18;3.93;;;3.07;;
1799;SDS011;919;48.274;12.292;2023-07-02T10:46:45;3.10;;;2.83;;
1799;SDS011;919;48.274;12.292;2023-07-02T10:49:13;3.63;;;3.13;;
1799;SDS011;919;48.274;12.292;2023-07-02T10:51:40;3.60;;;3.30;;
1799;SDS011;919;48.274;12.292;2023-07-02T10:54:07;3.63;;;2.83;;
1799;SDS011;919;48.274;12.292;2023-07-02T10:56:35;3.87;;;3.57;;
1799;SDS011;919;48.274;12.292;2023-07-02T10:59:02;4.63;;;2.90;;
1799;SDS011;919;48.274;12.292;2023-07-02T11:01:30;5.33;;;3.23;;
1799;SDS011;919;48.274;12.292;2023-07-02T11:03:58;5.73;;;3.07;;
1799;SDS011;919;48.274;12.292;2023-07-02T11:06:27;3.90;;;2.87;;
1799;SDS011;919;48.274;12.292;2023-07-02T11:08:54;5.50;;;3.57;;
1799;SDS011;919;48.274;12.292;2023-07-02T11:11:22;4.90;;;3.30;;
1799;SDS011;919;48.274;12.292;2023-07-02T11:14:11;2.93;;;2.73;;
1799;SDS011;919;48.274;12.292;2023-07-02T11:16:38;3.03;;;2.73;;
1799;SDS011;919;48.274;12.292;2023-07-02T11:19:06;4.17;;;3.77;;
1799;SDS011;919;48.274;12.292;2023-07-02T11:21:34;5.40;;;3.83;;
1799;SDS011;919;48.274;12.292;2023-07-02T11:24:02;4.30;;;3.90;;
1799;SDS011;919;48.274;12.292;2023-07-02T11:26:34;4.80;;;4.40;;
1799;SDS011;919;48.274;12.292;2023-07-02T11:29:01;5.47;;;4.37;;
1799;SDS011;919;48.274;12.292;2023-07-02T11:31:29;5.43;;;4.10;;
1799;SDS011;919;48.274;12.292;2023-07-02T11:33:58;3.80;;;3.37;;
1799;SDS011;919;48.274;12.292;2023-07-02T11:37:01;4.57;;;4.07;;
1799;SDS011;919;48.274;12.292;2023-07-02T11:39:38;4.63;;;4.20;;
1799;SDS011;919;48.274;12.292;2023-07-02T11:42:05;6.10;;;4.13;;
1799;SDS011;919;48.274;12.292;2023-07-02T11:44:32;5.93;;;4.60;;
1799;SDS011;919;48.274;12.292;2023-07-02T11:47:00;5.70;;;4.50;;
1799;SDS011;919;48.274;12.292;2023-07-02T11:49:28;5.97;;;4.80;;
1799;SDS011;919;48.274;12.292;2023-07-02T11:51:56;5.90;;;4.50;;
1799;SDS011;919;48.274;12.292;2023-07-02T11:54:22;6.90;;;4.37;;
1799;SDS011;919;48.274;12.292;2023-07-02T11:56:50;5.90;;;4.67;;
1799;SDS011;919;48.274;12.292;2023-07-02T11:59:16;5.23;;;4.50;;
1799;SDS011;919;48.274;12.292;2023-07-02T12:01:43;6.57;;;5.10;;
1799;SDS011;919;48.274;12.292;2023-07-02T12:04:12;5.80;;;5.03;;
1799;SDS011;919;48.274;12.292;2023-07-02T12:06:41;5.87;;;4.73;;
1799;SDS011;919;48.274;12.292;2023-07-02T12:09:08;5.50;;;5.00;;
1799;SDS011;919;48.274;12.292;2023-07-02T12:11:35;7.30;;;5.07;;
1799;SDS011;919;48.274;12.292;2023-07-02T12:14:02;6.43;;;4.93;;
1799;SDS011;919;48.274;12.292;2023-07-02T12:16:30;5.07;;;4.57;;
1799;SDS011;919;48.274;12.292;2023-07-02T12:18:57;6.33;;;5.73;;
1799;SDS011;919;48.274;12.292;2023-07-02T12:21:26;5.77;;;5.07;;
1799;SDS011;919;48.274;12.292;2023-07-02T12:23:53;8.53;;;5.30;;
1799;SDS011;919;48.274;12.292;2023-07-02T12:26:20;6.43;;;4.70;;
1799;SDS011;919;48.274;12.292;2023-07-02T12:28:48;6.40;;;5.70;;
1799;SDS011;919;48.274;12.292;2023-07-02T12:31:16;6.30;;;5.33;;
1799;SDS011;919;48.274;12.292;2023-07-02T12:33:42;7.60;;;5.20;;
1799;SDS011;919;48.274;12.292;2023-07-02T12:36:09;10.13;;;5.30;;
1799;SDS011;919;48.274;12.292;2023-07-02T12:38:37;6.80;;;5.23;;
1799;SDS011;919;48.274;12.292;2023-07-02T12:41:04;7.00;;;6.17;;
1799;SDS011;919;48.274;12.292;2023-07-02T12:43:31;6.33;;;5.73;;
1799;SDS011;919;48.274;12.292;2023-07-02T12:45:58;6.93;;;5.30;;
1799;SDS011;919;48.274;12.292;2023-07-02T12:48:25;6.53;;;5.87;;
1799;SDS011;919;48.274;12.292;2023-07-02T12:50:55;10.60;;;5.73;;
1799;SDS011;919;48.274;12.292;2023-07-02T12:53:23;6.83;;;5.80;;
1799;SDS011;919;48.274;12.292;2023-07-02T12:55:51;7.13;;;6.43;;
1799;SDS011;919;48.274;12.292;2023-07-02T12:58:19;7.00;;;6.30;;
1799;SDS011;919;48.274;12.292;2023-07-02T13:00:46;12.60;;;8.60;;
1799;SDS011;919;48.274;12.292;2023-07-02T13:03:13;13.47;;;7.20;;
1799;SDS011;919;48.274;12.292;2023-07-02T13:05:40;7.77;;;7.00;;
1799;SDS011;919;48.274;12.292;2023-07-02T13:08:07;8.67;;;7.70;;
1799;SDS011;919;48.274;12.292;2023-07-02T13:10:36;12.73;;;8.63;;
1799;SDS011;919;48.274;12.292;2023-07-02T13:13:05;10.43;;;8.90;;
1799;SDS011;919;48.274;12.292;2023-07-02T13:15:33;9.53;;;6.97;;
1799;SDS011;919;48.274;12.292;2023-07-02T13:18:00;10.43;;;7.90;;
1799;SDS011;919;48.274;12.292;2023-07-02T13:20:27;8.87;;;7.50;;
1799;SDS011;919;48.274;12.292;2023-07-02T13:22:55;8.70;;;7.60;;
1799;SDS011;919;48.274;12.292;2023-07-02T13:25:23;9.23;;;7.60;;
1799;SDS011;919;48.274;12.292;2023-07-02T13:27:50;11.23;;;7.73;;
1799;SDS011;919;48.274;12.292;2023-07-02T13:30:18;9.93;;;7.43;;
1799;SDS011;919;48.274;12.292;2023-07-02T13:32:45;12.03;;;8.70;;
1799;SDS011;919;48.274;12.292;2023-07-02T13:35:13;11.67;;;8.60;;
1799;SDS011;919;48.274;12.292;2023-07-02T13:37:40;11.40;;;8.27;;
1799;SDS011;919;48.274;12.292;2023-07-02T13:40:08;11.73;;;8.97;;
1799;SDS011;919;48.274;12.292;2023-07-02T13:42:37;11.80;;;8.87;;
1799;SDS011;919;48.274;12.292;2023-07-02T13:45:05;14.03;;;9.30;;
1799;SDS011;919;48.274;12.292;2023-07-02T13:47:34;12.33;;;9.50;;
1799;SDS011;919;48.274;12.292;2023-07-02T13:50:02;12.30;;;9.23;;
1799;SDS011;919;48.274;12.292;2023-07-02T13:52:31;13.33;;;9.47;;
1799;SDS011;919;48.274;12.292;2023-07-02T13:54:58;14.63;;;9.23;;
1799;SDS011;919;48.274;12.292;2023-07-02T13:57:25;13.37;;;10.23;;
1799;SDS011;919;48.274;12.292;2023-07-02T13:59:53;11.97;;;8.30;;
1799;SDS011;919;48.274;12.292;2023-07-02T14:02:20;11.70;;;9.70;;
1799;SDS011;919;48.274;12.292;2023-07-02T14:04:47;14.07;;;9.80;;
1799;SDS011;919;48.274;12.292;2023-07-02T14:07:13;11.47;;;9.63;;
1799;SDS011;919;48.274;12.292;2023-07-02T14:09:40;17.00;;;10.50;;
1799;SDS011;919;48.274;12.292;2023-07-02T14:12:07;13.83;;;9.60;;
1799;SDS011;919;48.274;12.292;2023-07-02T14:14:34;11.20;;;9.30;;
1799;SDS011;919;48.274;12.292;2023-07-02T14:17:02;13.93;;;10.20;;
1799;SDS011;919;48.274;12.292;2023-07-02T14:19:29;17.17;;;11.67;;
1799;SDS011;919;48.274;12.292;2023-07-02T14:21:56;15.30;;;10.47;;
1799;SDS011;919;48.274;12.292;2023-07-02T14:24:24;13.13;;;10.97;;
1799;SDS011;919;48.274;12.292;2023-07-02T14:26:51;14.33;;;11.10;;
1799;SDS011;919;48.274;12.292;2023-07-02T14:29:18;14.33;;;10.57;;
1799;SDS011;919;48.274;12.292;2023-07-02T14:31:45;18.27;;;12.20;;
1799;SDS011;919;48.274;12.292;2023-07-02T14:34:13;13.90;;;10.63;;
1799;SDS011;919;48.274;12.292;2023-07-02T14:36:40;14.67;;;11.63;;
1799;SDS011;919;48.274;12.292;2023-07-02T14:39:07;14.60;;;11.43;;
1799;SDS011;919;48.274;12.292;2023-07-02T14:41:34;16.80;;;11.50;;
1799;SDS011;919;48.274;12.292;2023-07-02T14:44:01;18.07;;;11.57;;
1799;SDS011;919;48.274;12.292;2023-07-02T14:46:28;13.00;;;11.20;;
1799;SDS011;919;48.274;12.292;2023-07-02T14:48:55;14.73;;;11.70;;
1799;SDS011;919;48.274;12.292;2023-07-02T14:51:23;14.47;;;11.20;;
1799;SDS011;919;48.274;12.292;2023-07-02T14:53:50;15.47;;;12.27;;
1799;SDS011;919;48.274;12.292;2023-07-02T14:56:17;16.87;;;11.07;;
1799;SDS011;919;48.274;12.292;2023-07-02T14:58:44;12.37;;;10.33;;
1799;SDS011;919;48.274;12.292;2023-07-02T15:01:11;17.63;;;12.20;;
1799;SDS011;919;48.274;12.292;2023-07-02T15:03:37;13.93;;;11.70;;
1799;SDS011;919;48.274;12.292;2023-07-02T15:06:05;17.58;;;11.75;;
1799;SDS011;919;48.274;12.292;2023-07-02T15:08:34;19.13;;;11.30;;
1799;SDS011;919;48.274;12.292;2023-07-02T15:11:01;14.87;;;11.63;;
1799;SDS011;919;48.274;12.292;2023-07-02T15:13:28;15.90;;;11.93;;
1799;SDS011;919;48.274;12.292;2023-07-02T15:15:55;15.47;;;11.57;;